createdAt,value
2019-03-11T00:01:59.590Z,99.90
2019-03-11T00:05:23.395Z,99.90
2019-03-11T00:08:47.273Z,99.90
2019-03-11T00:12:11.131Z,99.90
2019-03-11T00:15:34.881Z,99.90
2019-03-11T00:18:58.694Z,99.90
2019-03-11T00:22:22.468Z,99.90
2019-03-11T00:25:46.868Z,99.90
2019-03-11T00:29:11.549Z,99.90
2019-03-11T00:32:35.541Z,99.90
2019-03-11T00:35:59.466Z,99.90
2019-03-11T00:39:23.124Z,99.90
2019-03-11T00:42:47.640Z,99.90
2019-03-11T00:46:11.975Z,99.90
2019-03-11T00:49:35.815Z,99.90
2019-03-11T00:52:59.630Z,99.90
2019-03-11T00:56:23.415Z,99.90
2019-03-11T00:59:47.230Z,99.90
2019-03-11T01:03:10.920Z,99.90
2019-03-11T01:06:34.767Z,99.90
2019-03-11T01:09:58.635Z,99.90
2019-03-11T01:13:22.360Z,99.90
2019-03-11T01:16:46.186Z,99.90
2019-03-11T01:20:11.464Z,99.90
2019-03-11T01:23:35.263Z,99.90
2019-03-11T01:26:59.006Z,99.90
2019-03-11T01:30:22.770Z,99.90
2019-03-11T01:33:46.518Z,99.90
2019-03-11T01:37:10.498Z,99.90
2019-03-11T01:40:34.180Z,99.90
2019-03-11T01:43:58.811Z,99.90
2019-03-11T01:47:22.755Z,99.90
2019-03-11T01:50:46.641Z,99.90
2019-03-11T01:54:10.734Z,99.90
2019-03-11T01:57:35.431Z,99.90
2019-03-11T02:00:59.438Z,99.90
2019-03-11T02:04:23.269Z,99.90
2019-03-11T02:07:46.984Z,99.90
2019-03-11T02:11:10.750Z,99.90
2019-03-11T02:14:34.515Z,99.90
2019-03-11T02:17:58.343Z,99.90
2019-03-11T02:21:22.366Z,99.90
2019-03-11T02:24:46.791Z,99.90
2019-03-11T02:28:10.588Z,99.90
2019-03-11T02:31:34.892Z,99.90
2019-03-11T02:34:58.711Z,99.90
2019-03-11T02:38:22.445Z,99.90
2019-03-11T02:41:47.134Z,99.90
2019-03-11T02:45:11.722Z,99.90
2019-03-11T02:48:35.479Z,99.90
2019-03-11T02:51:59.418Z,99.90
2019-03-11T02:55:23.258Z,99.90
2019-03-11T02:58:47.040Z,99.90
2019-03-11T03:02:16.521Z,99.90
2019-03-11T03:05:41.887Z,99.90
2019-03-11T03:09:09.628Z,99.90
2019-03-11T03:12:34.248Z,99.90
2019-03-11T03:15:58.225Z,99.90
2019-03-11T03:19:22.231Z,99.90
2019-03-11T03:22:46.418Z,99.90
2019-03-11T03:26:10.302Z,99.90
2019-03-11T03:29:34.275Z,99.90
2019-03-11T03:32:58.367Z,99.90
2019-03-11T03:36:22.180Z,99.90
2019-03-11T03:39:46.018Z,99.90
2019-03-11T03:43:09.789Z,99.90
2019-03-11T03:46:33.624Z,99.90
2019-03-11T03:49:57.450Z,99.90
2019-03-11T03:53:21.246Z,99.90
2019-03-11T03:56:44.939Z,99.90
2019-03-11T04:00:10.223Z,99.90
2019-03-11T04:03:34.095Z,99.90
2019-03-11T04:06:57.852Z,99.90
2019-03-11T04:10:21.642Z,99.90
2019-03-11T04:13:45.734Z,99.90
2019-03-11T04:17:09.550Z,99.90
2019-03-11T04:20:33.380Z,99.90
2019-03-11T04:23:57.098Z,99.90
2019-03-11T04:27:20.918Z,99.90
2019-03-11T04:30:44.724Z,99.90
2019-03-11T04:34:08.679Z,99.90
2019-03-11T04:37:32.458Z,99.90
2019-03-11T04:40:56.163Z,99.90
2019-03-11T04:44:20.155Z,99.90
2019-03-11T04:47:44.296Z,99.90
2019-03-11T04:51:08.225Z,99.90
2019-03-11T04:54:32.220Z,99.90
2019-03-11T04:57:56.783Z,99.90
2019-03-11T05:01:20.551Z,99.90
2019-03-11T05:04:44.532Z,99.90
2019-03-11T05:08:08.360Z,99.90
2019-03-11T05:11:32.586Z,99.90
2019-03-11T05:14:56.422Z,99.90
2019-03-11T05:18:20.093Z,99.90
2019-03-11T05:21:43.976Z,99.90
2019-03-11T05:25:10.364Z,99.90
2019-03-11T05:28:34.251Z,99.90
2019-03-11T05:31:58.042Z,99.90
2019-03-11T05:35:21.963Z,99.90
2019-03-11T05:38:45.676Z,99.90
2019-03-11T05:42:10.030Z,99.90
2019-03-11T05:45:34.815Z,99.90
2019-03-11T05:48:58.705Z,99.90
2019-03-11T05:52:22.756Z,99.90
2019-03-11T05:55:46.522Z,99.90
2019-03-11T05:59:10.510Z,99.90
2019-03-11T06:02:36.463Z,99.90
2019-03-11T06:05:59.641Z,99.90
2019-03-11T06:09:23.381Z,99.90
2019-03-11T06:12:47.875Z,99.90
2019-03-11T06:16:12.321Z,99.90
2019-03-11T06:19:39.165Z,99.90
2019-03-11T06:23:04.945Z,99.90
2019-03-11T06:26:28.695Z,99.90
2019-03-11T06:29:52.670Z,99.90
2019-03-11T06:33:16.918Z,99.90
2019-03-11T06:36:40.706Z,99.90
2019-03-11T06:40:07.715Z,99.90
2019-03-11T06:43:31.750Z,99.90
2019-03-11T06:46:55.683Z,99.90
2019-03-11T06:50:19.531Z,99.90
2019-03-11T06:53:43.496Z,99.90
2019-03-11T06:57:07.175Z,99.90
2019-03-11T07:00:31.033Z,99.90
2019-03-11T07:03:54.823Z,99.90
2019-03-11T07:07:18.776Z,99.90
2019-03-11T07:10:42.766Z,99.90
2019-03-11T07:14:06.701Z,99.90
2019-03-11T07:17:30.651Z,99.90
2019-03-11T07:20:54.561Z,99.90
2019-03-11T07:24:18.326Z,99.90
2019-03-11T07:27:42.401Z,99.90
2019-03-11T07:31:06.355Z,99.90
2019-03-11T07:34:30.264Z,99.90
2019-03-11T07:37:54.145Z,99.90
2019-03-11T07:41:21.159Z,99.90
2019-03-11T07:44:45.911Z,99.90
2019-03-11T07:48:09.763Z,99.90
2019-03-11T07:51:34.131Z,99.90
2019-03-11T07:55:02.008Z,99.90
2019-03-11T07:58:28.596Z,99.90
2019-03-11T08:01:52.573Z,99.90
2019-03-11T08:05:16.926Z,99.90
2019-03-11T08:08:41.051Z,99.90
2019-03-11T08:12:05.065Z,99.90
2019-03-11T08:15:29.295Z,99.90
2019-03-11T08:18:53.060Z,99.90
2019-03-11T08:22:18.651Z,99.90
2019-03-11T08:25:42.571Z,99.90
2019-03-11T08:29:06.445Z,99.90
2019-03-11T08:32:30.386Z,99.90
2019-03-11T08:35:55.580Z,99.90
2019-03-11T08:39:19.733Z,99.90
2019-03-11T08:42:43.760Z,99.90
2019-03-11T08:46:07.617Z,99.90
2019-03-11T08:49:32.443Z,99.90
2019-03-11T08:52:56.171Z,99.90
2019-03-11T08:56:20.266Z,99.90
2019-03-11T08:59:44.150Z,99.90
2019-03-11T09:03:08.160Z,99.90
2019-03-11T09:06:32.039Z,99.90
2019-03-11T09:09:55.763Z,99.90
2019-03-11T09:13:19.673Z,99.90
2019-03-11T09:16:43.586Z,99.90
2019-03-11T09:20:10.388Z,99.90
2019-03-11T09:23:34.200Z,99.90
2019-03-11T09:26:57.955Z,99.90
2019-03-11T09:30:23.622Z,99.90
2019-03-11T09:33:47.478Z,95.10
2019-03-11T09:37:11.163Z,94.90
2019-03-11T09:40:35.015Z,81.40
2019-03-11T09:43:59.103Z,71.90
2019-03-11T09:47:22.843Z,73.60
2019-03-11T09:50:46.638Z,88.80
2019-03-11T09:54:10.514Z,89.60
2019-03-11T09:57:34.250Z,90.20
2019-03-11T10:00:58.186Z,96.40
2019-03-11T10:04:22.169Z,99.90
2019-03-11T10:07:46.118Z,99.90
2019-03-11T10:11:10.011Z,99.90
2019-03-11T10:14:33.816Z,99.90
2019-03-11T10:17:57.754Z,99.90
2019-03-11T10:21:21.503Z,99.90
2019-03-11T10:24:45.386Z,99.90
2019-03-11T10:28:09.188Z,99.90
2019-03-11T10:31:33.156Z,99.90
2019-03-11T10:34:56.872Z,99.90
2019-03-11T10:38:21.605Z,99.90
2019-03-11T10:41:46.128Z,99.90
2019-03-11T10:45:12.490Z,99.90
2019-03-11T10:48:37.686Z,99.90
2019-03-11T10:52:01.690Z,99.90
2019-03-11T10:55:26.524Z,99.90
2019-03-11T10:58:50.449Z,99.90
2019-03-11T11:02:14.344Z,99.90
2019-03-11T11:05:38.319Z,99.90
2019-03-11T11:09:02.200Z,99.90
2019-03-11T11:12:25.934Z,99.90
2019-03-11T11:15:49.719Z,99.90
2019-03-11T11:19:13.472Z,99.90
2019-03-11T11:22:37.401Z,99.90
2019-03-11T11:26:01.149Z,99.90
2019-03-11T11:29:24.869Z,99.90
2019-03-11T11:32:48.736Z,99.90
2019-03-11T11:36:12.586Z,99.90
2019-03-11T11:39:37.059Z,99.90
2019-03-11T11:43:03.825Z,99.90
2019-03-11T11:46:27.607Z,99.90
2019-03-11T11:49:51.311Z,99.90
2019-03-11T11:53:15.076Z,99.90
2019-03-11T11:56:39.705Z,99.90
2019-03-11T12:00:04.627Z,99.90
2019-03-11T12:03:28.370Z,99.90
2019-03-11T12:06:52.179Z,99.90
2019-03-11T12:10:23.778Z,99.90
2019-03-11T12:13:47.470Z,99.90
2019-03-11T12:17:11.439Z,99.90
2019-03-11T12:20:35.666Z,99.90
2019-03-11T12:23:59.523Z,99.90
2019-03-11T12:27:23.316Z,99.90
2019-03-11T12:30:49.198Z,99.90
2019-03-11T12:34:12.901Z,99.90
2019-03-11T12:37:36.696Z,99.90
2019-03-11T12:41:00.665Z,99.90
2019-03-11T12:44:24.522Z,99.90
2019-03-11T12:47:48.536Z,99.90
2019-03-11T12:51:12.400Z,99.90
2019-03-11T12:54:36.290Z,99.90
2019-03-11T12:58:00.064Z,99.90
2019-03-11T13:01:23.895Z,99.90
2019-03-11T13:04:47.746Z,99.90
2019-03-11T13:08:11.616Z,99.90
2019-03-11T13:11:35.516Z,99.90
2019-03-11T13:14:59.263Z,99.90
2019-03-11T13:18:40.510Z,99.90
2019-03-11T13:22:04.326Z,99.90
2019-03-11T13:25:30.684Z,99.90
2019-03-11T13:28:55.563Z,99.90
2019-03-11T13:32:19.432Z,99.90
2019-03-11T13:35:45.005Z,99.90
2019-03-11T13:39:10.759Z,99.90
2019-03-11T13:42:34.818Z,99.90
2019-03-11T13:45:59.610Z,99.90
2019-03-11T13:49:23.517Z,99.90
2019-03-11T13:52:48.263Z,99.90
2019-03-11T13:56:12.078Z,99.90
2019-03-11T13:59:35.926Z,99.90
2019-03-11T14:02:59.730Z,99.90
2019-03-11T14:06:23.484Z,99.90
2019-03-11T14:09:47.330Z,99.90
2019-03-11T14:13:11.252Z,99.90
2019-03-11T14:16:35.010Z,99.90
2019-03-11T14:19:58.922Z,99.90
2019-03-11T14:23:22.694Z,99.90
2019-03-11T14:26:46.540Z,99.90
2019-03-11T14:30:21.082Z,99.90
2019-03-11T14:33:44.856Z,99.90
2019-03-11T14:37:08.848Z,99.90
2019-03-11T14:40:32.686Z,99.90
2019-03-11T14:43:56.644Z,99.90
2019-03-11T14:47:20.394Z,99.90
2019-03-11T14:50:44.428Z,99.90
2019-03-11T14:54:08.464Z,99.90
2019-03-11T14:57:32.473Z,99.90
2019-03-11T15:00:56.325Z,99.90
2019-03-11T15:04:26.048Z,99.90
2019-03-11T15:07:50.091Z,99.90
2019-03-11T15:11:14.036Z,99.90
2019-03-11T15:14:38.618Z,99.90
2019-03-11T15:18:02.904Z,99.90
2019-03-11T15:21:27.154Z,99.90
2019-03-11T15:24:51.058Z,99.90
2019-03-11T15:28:15.049Z,99.90
2019-03-11T15:31:38.963Z,99.90
2019-03-11T15:35:03.863Z,99.90
2019-03-11T15:38:28.314Z,99.90
2019-03-11T15:41:52.068Z,99.90
2019-03-11T15:48:32.903Z,99.90
2019-03-11T15:51:56.785Z,99.90
2019-03-11T15:55:20.603Z,99.90
2019-03-11T15:58:44.372Z,99.90
2019-03-11T16:02:08.193Z,99.90
2019-03-11T16:05:32.100Z,99.90
2019-03-11T16:08:56.594Z,99.90
2019-03-11T16:12:20.697Z,99.90
2019-03-11T16:15:44.805Z,99.90
2019-03-11T16:19:09.074Z,99.90
2019-03-11T16:22:32.956Z,99.90
2019-03-11T16:25:56.732Z,99.90
2019-03-11T16:29:20.496Z,99.90
2019-03-11T16:32:57.816Z,99.90
2019-03-11T16:36:10.348Z,99.90
2019-03-11T16:39:35.242Z,99.90
2019-03-11T16:42:59.553Z,99.90
2019-03-11T16:46:23.500Z,99.90
2019-03-11T16:49:49.381Z,99.90
2019-03-11T16:53:13.229Z,99.90
2019-03-11T16:56:37.371Z,99.90
2019-03-11T17:00:01.194Z,99.90
2019-03-11T17:03:25.172Z,99.90
2019-03-11T17:06:52.565Z,99.90
2019-03-11T17:10:18.785Z,99.90
2019-03-11T17:13:42.756Z,99.90
2019-03-11T17:17:14.280Z,99.90
2019-03-11T17:20:38.196Z,99.90
2019-03-11T17:24:02.177Z,99.90
2019-03-11T17:27:26.992Z,99.90
2019-03-11T17:30:51.051Z,99.90
2019-03-11T17:34:19.816Z,99.90
2019-03-11T17:37:43.615Z,99.90
2019-03-11T17:41:07.810Z,99.90
2019-03-11T17:44:31.636Z,99.90
2019-03-11T17:47:55.695Z,99.90
2019-03-11T17:51:19.551Z,99.90
2019-03-11T17:54:43.887Z,99.90
2019-03-11T17:58:07.823Z,99.90
2019-03-11T18:01:31.647Z,99.90
2019-03-11T18:04:55.449Z,99.90
2019-03-11T18:08:19.398Z,99.90
2019-03-11T18:11:43.376Z,99.90
2019-03-11T18:15:09.658Z,99.90
2019-03-11T18:18:33.769Z,99.90
2019-03-11T18:21:57.935Z,99.90
2019-03-11T18:25:24.482Z,99.90
2019-03-11T18:28:48.246Z,99.90
2019-03-11T18:32:12.264Z,99.90
2019-03-11T18:35:36.586Z,99.90
2019-03-11T18:39:00.485Z,99.90
2019-03-11T18:42:28.221Z,99.90
2019-03-11T18:45:52.091Z,99.90
2019-03-11T18:49:17.452Z,99.90
2019-03-11T18:52:42.756Z,99.90
2019-03-11T18:56:06.628Z,99.90
2019-03-11T18:59:30.577Z,99.90
2019-03-11T19:02:54.786Z,99.90
2019-03-11T19:06:18.952Z,99.90
2019-03-11T19:09:43.064Z,99.90
2019-03-11T19:13:09.525Z,99.90
2019-03-11T19:16:32.700Z,99.90
2019-03-11T19:19:59.819Z,99.90
2019-03-11T19:23:23.115Z,99.90
2019-03-11T19:26:46.942Z,99.90
2019-03-11T19:30:13.507Z,99.90
2019-03-11T19:33:37.578Z,99.90
2019-03-11T19:37:01.481Z,99.90
2019-03-11T19:40:28.922Z,99.90
2019-03-11T19:43:53.573Z,99.90
2019-03-11T19:47:18.737Z,99.90
2019-03-11T19:50:42.586Z,99.90
2019-03-11T19:54:07.328Z,99.90
2019-03-11T19:57:33.324Z,99.90
2019-03-11T20:00:57.994Z,99.90
2019-03-11T20:04:21.854Z,99.90
2019-03-11T20:07:45.984Z,99.90
2019-03-11T20:11:09.877Z,99.90
2019-03-11T20:14:33.829Z,99.90
2019-03-11T20:17:57.785Z,99.90
2019-03-11T20:21:21.835Z,99.90
2019-03-11T20:24:45.982Z,99.90
2019-03-11T20:28:09.807Z,99.90
2019-03-11T20:31:34.859Z,99.90
2019-03-11T20:34:59.522Z,99.90
2019-03-11T20:38:36.441Z,99.90
2019-03-11T20:42:00.595Z,99.90
2019-03-11T20:45:24.569Z,99.90
2019-03-11T20:48:48.949Z,99.90
2019-03-11T20:52:13.611Z,99.90
2019-03-11T20:55:37.581Z,99.90
2019-03-11T20:59:01.608Z,99.90
2019-03-11T21:02:25.650Z,99.90
2019-03-11T21:05:52.500Z,99.90
2019-03-11T21:09:16.571Z,99.90
2019-03-11T21:12:46.913Z,99.90
2019-03-11T21:16:10.731Z,99.90
2019-03-11T21:19:34.693Z,99.90
2019-03-11T21:22:58.689Z,99.90
2019-03-11T21:26:22.619Z,99.90
2019-03-11T21:29:47.197Z,99.90
2019-03-11T21:33:11.125Z,99.90
2019-03-11T21:36:35.284Z,99.90
2019-03-11T21:40:00.844Z,99.90
2019-03-11T21:43:24.840Z,99.90
2019-03-11T21:46:50.823Z,99.90
2019-03-11T21:50:22.423Z,99.90
2019-03-11T21:53:48.530Z,99.90
2019-03-11T21:57:12.667Z,99.90
2019-03-11T22:00:36.657Z,99.90
2019-03-11T22:04:00.575Z,99.90
2019-03-11T22:07:24.269Z,99.90
2019-03-11T22:10:48.402Z,99.90
2019-03-11T22:14:12.422Z,99.90
2019-03-11T22:17:36.266Z,99.90
2019-03-11T22:21:00.040Z,99.90
2019-03-11T22:24:23.849Z,99.90
2019-03-11T22:27:47.684Z,99.90
2019-03-11T22:31:11.595Z,99.90
2019-03-11T22:34:38.247Z,99.90
2019-03-11T22:38:02.270Z,99.90
2019-03-11T22:41:26.240Z,99.90
2019-03-11T22:44:50.083Z,99.90
2019-03-11T22:48:14.718Z,99.90
2019-03-11T22:51:38.663Z,99.90
2019-03-11T22:55:02.436Z,99.90
2019-03-11T22:58:26.295Z,99.90
2019-03-11T23:01:50.588Z,99.90
2019-03-11T23:05:14.465Z,99.90
2019-03-11T23:08:40.484Z,99.90
2019-03-11T23:12:04.530Z,99.90
2019-03-11T23:15:28.256Z,99.90
2019-03-11T23:18:52.482Z,99.90
2019-03-11T23:22:16.252Z,99.90
2019-03-11T23:25:40.116Z,99.90
2019-03-11T23:29:04.036Z,99.90
2019-03-11T23:32:27.860Z,99.90
2019-03-11T23:35:51.671Z,99.90
2019-03-11T23:39:15.397Z,99.90
2019-03-11T23:42:39.168Z,99.90
2019-03-11T23:46:03.029Z,99.90
2019-03-11T23:49:26.804Z,99.90
2019-03-11T23:52:50.643Z,99.90
2019-03-11T23:56:14.881Z,99.90
2019-03-11T23:59:38.689Z,99.90
